<?xml version="1.0" encoding="UTF-8" standalone="no" ?>
<gpx xmlns="http://www.topografix.com/GPX/1/1" xmlns:xsi="http://www.w3.org/2001/XMLSchema-instance" xsi:schemaLocation="http://www.topografix.com/GPX/1/1 http://www.topografix.com/GPX/1/1/gpx.xsd" version="1.1" creator="VisuGPX - https://www.visugpx.com">
  <metadata>
    <name>Sancey le Grand</name>
    <desc><![CDATA[Boucle géocaching et très belle balade]]></desc>
  </metadata>
  <trk>
    <name><![CDATA[Randonnée Sancey le Grand on GPSies.com]]></name>
    <trkseg>
      <trkpt lat="47.28473" lon="6.57875">
        <ele>650.9497</ele>
        <time>2010-01-01T00:00:00Z</time>
      </trkpt>
      <trkpt lat="47.28466" lon="6.57859">
        <ele>637.49145</ele>
        <time>2010-01-01T00:00:05Z</time>
      </trkpt>
      <trkpt lat="47.28459" lon="6.57834">
        <ele>633.64599</ele>
        <time>2010-01-01T00:00:12Z</time>
      </trkpt>
      <trkpt lat="47.28461" lon="6.57838">
        <ele>632.68481</ele>
        <time>2010-01-01T00:00:13Z</time>
      </trkpt>
      <trkpt lat="47.28468" lon="6.57855">
        <ele>631.72338</ele>
        <time>2010-01-01T00:00:19Z</time>
      </trkpt>
      <trkpt lat="47.28463" lon="6.57857">
        <ele>631.72338</ele>
        <time>2010-01-01T00:00:21Z</time>
      </trkpt>
      <trkpt lat="47.28463" lon="6.57857">
        <ele>632.68481</ele>
        <time>2010-01-01T00:00:21Z</time>
      </trkpt>
      <trkpt lat="47.28458" lon="6.57839">
        <ele>633.16528</ele>
        <time>2010-01-01T00:00:27Z</time>
      </trkpt>
      <trkpt lat="47.28459" lon="6.57843">
        <ele>633.16528</ele>
        <time>2010-01-01T00:00:28Z</time>
      </trkpt>
      <trkpt lat="47.28465" lon="6.57855">
        <ele>632.68481</ele>
        <time>2010-01-01T00:00:32Z</time>
      </trkpt>
      <trkpt lat="47.28462" lon="6.57864">
        <ele>630.7622</ele>
        <time>2010-01-01T00:00:35Z</time>
      </trkpt>
      <trkpt lat="47.28461" lon="6.5786">
        <ele>631.24291</ele>
        <time>2010-01-01T00:00:36Z</time>
      </trkpt>
      <trkpt lat="47.28442" lon="6.5785">
        <ele>633.16528</ele>
        <time>2010-01-01T00:00:44Z</time>
      </trkpt>
      <trkpt lat="47.2844" lon="6.5785">
        <ele>634.1267</ele>
        <time>2010-01-01T00:00:45Z</time>
      </trkpt>
      <trkpt lat="47.28434" lon="6.57856">
        <ele>635.08813</ele>
        <time>2010-01-01T00:00:48Z</time>
      </trkpt>
      <trkpt lat="47.28433" lon="6.57857">
        <ele>633.16528</ele>
        <time>2010-01-01T00:00:48Z</time>
      </trkpt>
      <trkpt lat="47.28434" lon="6.57857">
        <ele>633.16528</ele>
        <time>2010-01-01T00:00:48Z</time>
      </trkpt>
      <trkpt lat="47.28436" lon="6.57852">
        <ele>630.28149</ele>
        <time>2010-01-01T00:00:50Z</time>
      </trkpt>
      <trkpt lat="47.28431" lon="6.57856">
        <ele>630.7622</ele>
        <time>2010-01-01T00:00:52Z</time>
      </trkpt>
      <trkpt lat="47.2843" lon="6.57858">
        <ele>629.32006</ele>
        <time>2010-01-01T00:00:53Z</time>
      </trkpt>
      <trkpt lat="47.2843" lon="6.57868">
        <ele>633.64599</ele>
        <time>2010-01-01T00:00:55Z</time>
      </trkpt>
      <trkpt lat="47.28419" lon="6.57878">
        <ele>634.60742</ele>
        <time>2010-01-01T00:01:00Z</time>
      </trkpt>
      <trkpt lat="47.28424" lon="6.57876">
        <ele>634.1267</ele>
        <time>2010-01-01T00:01:02Z</time>
      </trkpt>
      <trkpt lat="47.28426" lon="6.57892">
        <ele>631.72338</ele>
        <time>2010-01-01T00:01:06Z</time>
      </trkpt>
      <trkpt lat="47.28422" lon="6.57911">
        <ele>628.83959</ele>
        <time>2010-01-01T00:01:12Z</time>
      </trkpt>
      <trkpt lat="47.2842" lon="6.57934">
        <ele>625.95556</ele>
        <time>2010-01-01T00:01:18Z</time>
      </trkpt>
      <trkpt lat="47.28414" lon="6.57957">
        <ele>624.51367</ele>
        <time>2010-01-01T00:01:25Z</time>
      </trkpt>
      <trkpt lat="47.28411" lon="6.57981">
        <ele>623.07177</ele>
        <time>2010-01-01T00:01:32Z</time>
      </trkpt>
      <trkpt lat="47.2841" lon="6.58013">
        <ele>623.55249</ele>
        <time>2010-01-01T00:01:40Z</time>
      </trkpt>
      <trkpt lat="47.28409" lon="6.58045">
        <ele>627.3977</ele>
        <time>2010-01-01T00:01:49Z</time>
      </trkpt>
      <trkpt lat="47.28417" lon="6.58058">
        <ele>628.35888</ele>
        <time>2010-01-01T00:01:53Z</time>
      </trkpt>
      <trkpt lat="47.28418" lon="6.58067">
        <ele>631.24291</ele>
        <time>2010-01-01T00:01:56Z</time>
      </trkpt>
      <trkpt lat="47.28425" lon="6.58069">
        <ele>628.83959</ele>
        <time>2010-01-01T00:01:59Z</time>
      </trkpt>
      <trkpt lat="47.28428" lon="6.58089">
        <ele>628.35888</ele>
        <time>2010-01-01T00:02:04Z</time>
      </trkpt>
      <trkpt lat="47.28427" lon="6.58109">
        <ele>628.35888</ele>
        <time>2010-01-01T00:02:10Z</time>
      </trkpt>
      <trkpt lat="47.28445" lon="6.58106">
        <ele>632.2041</ele>
        <time>2010-01-01T00:02:17Z</time>
      </trkpt>
      <trkpt lat="47.28455" lon="6.58113">
        <ele>632.68481</ele>
        <time>2010-01-01T00:02:22Z</time>
      </trkpt>
      <trkpt lat="47.28461" lon="6.58123">
        <ele>632.2041</ele>
        <time>2010-01-01T00:02:26Z</time>
      </trkpt>
      <trkpt lat="47.28462" lon="6.58126">
        <ele>632.2041</ele>
        <time>2010-01-01T00:02:26Z</time>
      </trkpt>
      <trkpt lat="47.28467" lon="6.58137">
        <ele>634.60742</ele>
        <time>2010-01-01T00:02:30Z</time>
      </trkpt>
      <trkpt lat="47.28467" lon="6.58141">
        <ele>636.53027</ele>
        <time>2010-01-01T00:02:31Z</time>
      </trkpt>
      <trkpt lat="47.28473" lon="6.58132">
        <ele>637.49145</ele>
        <time>2010-01-01T00:02:34Z</time>
      </trkpt>
      <trkpt lat="47.28471" lon="6.58136">
        <ele>639.41406</ele>
        <time>2010-01-01T00:02:36Z</time>
      </trkpt>
      <trkpt lat="47.28479" lon="6.58141">
        <ele>639.89477</ele>
        <time>2010-01-01T00:02:39Z</time>
      </trkpt>
      <trkpt lat="47.28488" lon="6.5814">
        <ele>638.93359</ele>
        <time>2010-01-01T00:02:43Z</time>
      </trkpt>
      <trkpt lat="47.28483" lon="6.58147">
        <ele>638.93359</ele>
        <time>2010-01-01T00:02:46Z</time>
      </trkpt>
      <trkpt lat="47.28496" lon="6.58162">
        <ele>636.53027</ele>
        <time>2010-01-01T00:02:53Z</time>
      </trkpt>
      <trkpt lat="47.28508" lon="6.5817">
        <ele>638.45288</ele>
        <time>2010-01-01T00:02:58Z</time>
      </trkpt>
      <trkpt lat="47.28517" lon="6.58178">
        <ele>638.93359</ele>
        <time>2010-01-01T00:03:02Z</time>
      </trkpt>
      <trkpt lat="47.28529" lon="6.58203">
        <ele>637.49145</ele>
        <time>2010-01-01T00:03:11Z</time>
      </trkpt>
      <trkpt lat="47.28546" lon="6.58219">
        <ele>637.01074</ele>
        <time>2010-01-01T00:03:19Z</time>
      </trkpt>
      <trkpt lat="47.28554" lon="6.58233">
        <ele>636.04956</ele>
        <time>2010-01-01T00:03:23Z</time>
      </trkpt>
      <trkpt lat="47.28552" lon="6.58237">
        <ele>636.04956</ele>
        <time>2010-01-01T00:03:25Z</time>
      </trkpt>
      <trkpt lat="47.28576" lon="6.58255">
        <ele>639.41406</ele>
        <time>2010-01-01T00:03:35Z</time>
      </trkpt>
      <trkpt lat="47.28585" lon="6.5826">
        <ele>639.41406</ele>
        <time>2010-01-01T00:03:39Z</time>
      </trkpt>
      <trkpt lat="47.28579" lon="6.5825">
        <ele>638.93359</ele>
        <time>2010-01-01T00:03:43Z</time>
      </trkpt>
      <trkpt lat="47.28577" lon="6.58244">
        <ele>639.41406</ele>
        <time>2010-01-01T00:03:45Z</time>
      </trkpt>
      <trkpt lat="47.28572" lon="6.58236">
        <ele>642.7788</ele>
        <time>2010-01-01T00:03:48Z</time>
      </trkpt>
      <trkpt lat="47.28564" lon="6.58231">
        <ele>643.73999</ele>
        <time>2010-01-01T00:03:51Z</time>
      </trkpt>
      <trkpt lat="47.28557" lon="6.5822">
        <ele>643.73999</ele>
        <time>2010-01-01T00:03:55Z</time>
      </trkpt>
      <trkpt lat="47.28556" lon="6.58219">
        <ele>643.73999</ele>
        <time>2010-01-01T00:03:56Z</time>
      </trkpt>
      <trkpt lat="47.28557" lon="6.58209">
        <ele>642.7788</ele>
        <time>2010-01-01T00:03:58Z</time>
      </trkpt>
      <trkpt lat="47.2856" lon="6.582">
        <ele>643.73999</ele>
        <time>2010-01-01T00:04:01Z</time>
      </trkpt>
      <trkpt lat="47.28556" lon="6.58209">
        <ele>643.73999</ele>
        <time>2010-01-01T00:04:04Z</time>
      </trkpt>
      <trkpt lat="47.28555" lon="6.5821">
        <ele>644.70117</ele>
        <time>2010-01-01T00:04:05Z</time>
      </trkpt>
      <trkpt lat="47.28543" lon="6.58213">
        <ele>648.06591</ele>
        <time>2010-01-01T00:04:09Z</time>
      </trkpt>
      <trkpt lat="47.28543" lon="6.58225">
        <ele>650.46923</ele>
        <time>2010-01-01T00:04:13Z</time>
      </trkpt>
      <trkpt lat="47.28549" lon="6.58241">
        <ele>649.98852</ele>
        <time>2010-01-01T00:04:18Z</time>
      </trkpt>
      <trkpt lat="47.28565" lon="6.5825">
        <ele>647.10449</ele>
        <time>2010-01-01T00:04:25Z</time>
      </trkpt>
      <trkpt lat="47.28582" lon="6.58262">
        <ele>646.14331</ele>
        <time>2010-01-01T00:04:32Z</time>
      </trkpt>
      <trkpt lat="47.28594" lon="6.58265">
        <ele>644.70117</ele>
        <time>2010-01-01T00:04:37Z</time>
      </trkpt>
      <trkpt lat="47.28608" lon="6.58272">
        <ele>642.7788</ele>
        <time>2010-01-01T00:04:43Z</time>
      </trkpt>
      <trkpt lat="47.28619" lon="6.58278">
        <ele>642.29809</ele>
        <time>2010-01-01T00:04:48Z</time>
      </trkpt>
      <trkpt lat="47.28637" lon="6.58289">
        <ele>640.85595</ele>
        <time>2010-01-01T00:04:56Z</time>
      </trkpt>
      <trkpt lat="47.28639" lon="6.58294">
        <ele>639.41406</ele>
        <time>2010-01-01T00:04:57Z</time>
      </trkpt>
      <trkpt lat="47.28655" lon="6.58292">
        <ele>635.5686</ele>
        <time>2010-01-01T00:05:03Z</time>
      </trkpt>
      <trkpt lat="47.28657" lon="6.58292">
        <ele>634.60742</ele>
        <time>2010-01-01T00:05:04Z</time>
      </trkpt>
      <trkpt lat="47.28669" lon="6.58308">
        <ele>628.35888</ele>
        <time>2010-01-01T00:05:11Z</time>
      </trkpt>
      <trkpt lat="47.28676" lon="6.58317">
        <ele>625.95556</ele>
        <time>2010-01-01T00:05:14Z</time>
      </trkpt>
      <trkpt lat="47.28677" lon="6.58319">
        <ele>626.91699</ele>
        <time>2010-01-01T00:05:15Z</time>
      </trkpt>
      <trkpt lat="47.28692" lon="6.58319">
        <ele>642.7788</ele>
        <time>2010-01-01T00:05:21Z</time>
      </trkpt>
      <trkpt lat="47.28712" lon="6.58325">
        <ele>651.43041</ele>
        <time>2010-01-01T00:05:29Z</time>
      </trkpt>
      <trkpt lat="47.28716" lon="6.5832">
        <ele>651.43041</ele>
        <time>2010-01-01T00:05:32Z</time>
      </trkpt>
      <trkpt lat="47.2871" lon="6.58303">
        <ele>646.14331</ele>
        <time>2010-01-01T00:05:37Z</time>
      </trkpt>
      <trkpt lat="47.28719" lon="6.58298">
        <ele>639.41406</ele>
        <time>2010-01-01T00:05:40Z</time>
      </trkpt>
      <trkpt lat="47.28723" lon="6.58288">
        <ele>639.41406</ele>
        <time>2010-01-01T00:05:44Z</time>
      </trkpt>
      <trkpt lat="47.28725" lon="6.58285">
        <ele>638.93359</ele>
        <time>2010-01-01T00:05:45Z</time>
      </trkpt>
      <trkpt lat="47.2873" lon="6.58267">
        <ele>629.32006</ele>
        <time>2010-01-01T00:05:50Z</time>
      </trkpt>
      <trkpt lat="47.28736" lon="6.58265">
        <ele>620.18774</ele>
        <time>2010-01-01T00:05:52Z</time>
      </trkpt>
      <trkpt lat="47.28746" lon="6.5827">
        <ele>615.3811</ele>
        <time>2010-01-01T00:05:57Z</time>
      </trkpt>
      <trkpt lat="47.28775" lon="6.58267">
        <ele>614.41967</ele>
        <time>2010-01-01T00:06:08Z</time>
      </trkpt>
      <trkpt lat="47.28797" lon="6.58258">
        <ele>605.76806</ele>
        <time>2010-01-01T00:06:18Z</time>
      </trkpt>
      <trkpt lat="47.28808" lon="6.58261">
        <ele>592.79028</ele>
        <time>2010-01-01T00:06:22Z</time>
      </trkpt>
      <trkpt lat="47.28805" lon="6.58272">
        <ele>587.98339</ele>
        <time>2010-01-01T00:06:25Z</time>
      </trkpt>
      <trkpt lat="47.28809" lon="6.58283">
        <ele>587.50268</ele>
        <time>2010-01-01T00:06:29Z</time>
      </trkpt>
      <trkpt lat="47.28824" lon="6.58262">
        <ele>586.5415</ele>
        <time>2010-01-01T00:06:37Z</time>
      </trkpt>
      <trkpt lat="47.28822" lon="6.58255">
        <ele>577.88964</ele>
        <time>2010-01-01T00:06:39Z</time>
      </trkpt>
      <trkpt lat="47.28827" lon="6.58259">
        <ele>570.19897</ele>
        <time>2010-01-01T00:06:41Z</time>
      </trkpt>
      <trkpt lat="47.2884" lon="6.58263">
        <ele>570.19897</ele>
        <time>2010-01-01T00:06:46Z</time>
      </trkpt>
      <trkpt lat="47.28845" lon="6.58267">
        <ele>570.67968</ele>
        <time>2010-01-01T00:06:49Z</time>
      </trkpt>
      <trkpt lat="47.28859" lon="6.58267">
        <ele>584.61889</ele>
        <time>2010-01-01T00:06:54Z</time>
      </trkpt>
      <trkpt lat="47.28865" lon="6.58264">
        <ele>595.19335</ele>
        <time>2010-01-01T00:06:57Z</time>
      </trkpt>
      <trkpt lat="47.28852" lon="6.58287">
        <ele>601.44189</ele>
        <time>2010-01-01T00:07:05Z</time>
      </trkpt>
      <trkpt lat="47.2885" lon="6.58272">
        <ele>593.75146</ele>
        <time>2010-01-01T00:07:09Z</time>
      </trkpt>
      <trkpt lat="47.28869" lon="6.58257">
        <ele>575.48632</ele>
        <time>2010-01-01T00:07:18Z</time>
      </trkpt>
      <trkpt lat="47.28851" lon="6.58244">
        <ele>572.60253</ele>
        <time>2010-01-01T00:07:25Z</time>
      </trkpt>
      <trkpt lat="47.28849" lon="6.58222">
        <ele>571.64086</ele>
        <time>2010-01-01T00:07:31Z</time>
      </trkpt>
      <trkpt lat="47.28831" lon="6.58216">
        <ele>568.75708</ele>
        <time>2010-01-01T00:07:39Z</time>
      </trkpt>
      <trkpt lat="47.28811" lon="6.58197">
        <ele>565.39257</ele>
        <time>2010-01-01T00:07:48Z</time>
      </trkpt>
      <trkpt lat="47.28809" lon="6.58175">
        <ele>569.23779</ele>
        <time>2010-01-01T00:07:54Z</time>
      </trkpt>
      <trkpt lat="47.2879" lon="6.58152">
        <ele>568.75708</ele>
        <time>2010-01-01T00:08:04Z</time>
      </trkpt>
      <trkpt lat="47.28786" lon="6.58144">
        <ele>567.79565</ele>
        <time>2010-01-01T00:08:07Z</time>
      </trkpt>
      <trkpt lat="47.28778" lon="6.5813">
        <ele>565.87329</ele>
        <time>2010-01-01T00:08:12Z</time>
      </trkpt>
      <trkpt lat="47.28778" lon="6.58125">
        <ele>562.50854</ele>
        <time>2010-01-01T00:08:13Z</time>
      </trkpt>
      <trkpt lat="47.28775" lon="6.58094">
        <ele>568.75708</ele>
        <time>2010-01-01T00:08:21Z</time>
      </trkpt>
      <trkpt lat="47.2876" lon="6.58084">
        <ele>573.56396</ele>
        <time>2010-01-01T00:08:28Z</time>
      </trkpt>
      <trkpt lat="47.28744" lon="6.58085">
        <ele>572.60253</ele>
        <time>2010-01-01T00:08:35Z</time>
      </trkpt>
      <trkpt lat="47.28735" lon="6.58079">
        <ele>571.1604</ele>
        <time>2010-01-01T00:08:38Z</time>
      </trkpt>
      <trkpt lat="47.2873" lon="6.58071">
        <ele>572.60253</ele>
        <time>2010-01-01T00:08:41Z</time>
      </trkpt>
      <trkpt lat="47.28727" lon="6.5807">
        <ele>572.60253</ele>
        <time>2010-01-01T00:08:42Z</time>
      </trkpt>
      <trkpt lat="47.28723" lon="6.5806">
        <ele>572.60253</ele>
        <time>2010-01-01T00:08:46Z</time>
      </trkpt>
      <trkpt lat="47.28729" lon="6.58047">
        <ele>568.75708</ele>
        <time>2010-01-01T00:08:50Z</time>
      </trkpt>
      <trkpt lat="47.28741" lon="6.58037">
        <ele>567.79565</ele>
        <time>2010-01-01T00:08:55Z</time>
      </trkpt>
      <trkpt lat="47.28726" lon="6.58026">
        <ele>571.64086</ele>
        <time>2010-01-01T00:09:02Z</time>
      </trkpt>
      <trkpt lat="47.2871" lon="6.58024">
        <ele>570.19897</ele>
        <time>2010-01-01T00:09:08Z</time>
      </trkpt>
      <trkpt lat="47.28711" lon="6.58032">
        <ele>571.1604</ele>
        <time>2010-01-01T00:09:11Z</time>
      </trkpt>
      <trkpt lat="47.28698" lon="6.58015">
        <ele>557.70214</ele>
        <time>2010-01-01T00:09:18Z</time>
      </trkpt>
      <trkpt lat="47.28678" lon="6.58021">
        <ele>549.05004</ele>
        <time>2010-01-01T00:09:26Z</time>
      </trkpt>
      <trkpt lat="47.28679" lon="6.58021">
        <ele>544.72424</ele>
        <time>2010-01-01T00:09:26Z</time>
      </trkpt>
      <trkpt lat="47.28691" lon="6.58025">
        <ele>539.9176</ele>
        <time>2010-01-01T00:09:31Z</time>
      </trkpt>
      <trkpt lat="47.28683" lon="6.58029">
        <ele>536.07238</ele>
        <time>2010-01-01T00:09:35Z</time>
      </trkpt>
      <trkpt lat="47.28683" lon="6.58033">
        <ele>537.03369</ele>
        <time>2010-01-01T00:09:36Z</time>
      </trkpt>
      <trkpt lat="47.28685" lon="6.58037">
        <ele>537.99499</ele>
        <time>2010-01-01T00:09:37Z</time>
      </trkpt>
      <trkpt lat="47.28689" lon="6.58028">
        <ele>537.99499</ele>
        <time>2010-01-01T00:09:40Z</time>
      </trkpt>
      <trkpt lat="47.28672" lon="6.5802">
        <ele>542.80151</ele>
        <time>2010-01-01T00:09:47Z</time>
      </trkpt>
      <trkpt lat="47.28659" lon="6.58013">
        <ele>550.49218</ele>
        <time>2010-01-01T00:09:53Z</time>
      </trkpt>
      <trkpt lat="47.28642" lon="6.5801">
        <ele>557.22143</ele>
        <time>2010-01-01T00:10:00Z</time>
      </trkpt>
      <trkpt lat="47.28622" lon="6.58003">
        <ele>558.18286</ele>
        <time>2010-01-01T00:10:08Z</time>
      </trkpt>
      <trkpt lat="47.28599" lon="6.58001">
        <ele>565.87329</ele>
        <time>2010-01-01T00:10:17Z</time>
      </trkpt>
      <trkpt lat="47.28577" lon="6.58013">
        <ele>573.56396</ele>
        <time>2010-01-01T00:10:27Z</time>
      </trkpt>
      <trkpt lat="47.28566" lon="6.58015">
        <ele>571.64086</ele>
        <time>2010-01-01T00:10:31Z</time>
      </trkpt>
      <trkpt lat="47.28546" lon="6.58006">
        <ele>572.12182</ele>
        <time>2010-01-01T00:10:39Z</time>
      </trkpt>
      <trkpt lat="47.2854" lon="6.57978">
        <ele>578.37036</ele>
        <time>2010-01-01T00:10:47Z</time>
      </trkpt>
      <trkpt lat="47.28536" lon="6.57977">
        <ele>584.13818</ele>
        <time>2010-01-01T00:10:49Z</time>
      </trkpt>
      <trkpt lat="47.28531" lon="6.57969">
        <ele>587.50268</ele>
        <time>2010-01-01T00:10:52Z</time>
      </trkpt>
      <trkpt lat="47.28535" lon="6.5797">
        <ele>586.06079</ele>
        <time>2010-01-01T00:10:54Z</time>
      </trkpt>
      <trkpt lat="47.28544" lon="6.5797">
        <ele>586.5415</ele>
        <time>2010-01-01T00:10:57Z</time>
      </trkpt>
      <trkpt lat="47.28541" lon="6.57967">
        <ele>589.42553</ele>
        <time>2010-01-01T00:10:58Z</time>
      </trkpt>
      <trkpt lat="47.28534" lon="6.57957">
        <ele>588.94506</ele>
        <time>2010-01-01T00:11:02Z</time>
      </trkpt>
      <trkpt lat="47.28552" lon="6.57945">
        <ele>607.20996</ele>
        <time>2010-01-01T00:11:10Z</time>
      </trkpt>
      <trkpt lat="47.28543" lon="6.57954">
        <ele>611.05517</ele>
        <time>2010-01-01T00:11:14Z</time>
      </trkpt>
      <trkpt lat="47.28549" lon="6.57953">
        <ele>605.28735</ele>
        <time>2010-01-01T00:11:17Z</time>
      </trkpt>
      <trkpt lat="47.28547" lon="6.57942">
        <ele>607.69067</ele>
        <time>2010-01-01T00:11:20Z</time>
      </trkpt>
      <trkpt lat="47.28534" lon="6.57949">
        <ele>605.76806</ele>
        <time>2010-01-01T00:11:25Z</time>
      </trkpt>
      <trkpt lat="47.28541" lon="6.57946">
        <ele>608.17138</ele>
        <time>2010-01-01T00:11:28Z</time>
      </trkpt>
      <trkpt lat="47.28534" lon="6.57953">
        <ele>605.76806</ele>
        <time>2010-01-01T00:11:31Z</time>
      </trkpt>
      <trkpt lat="47.28526" lon="6.57982">
        <ele>589.42553</ele>
        <time>2010-01-01T00:11:40Z</time>
      </trkpt>
      <trkpt lat="47.28526" lon="6.57966">
        <ele>575.48632</ele>
        <time>2010-01-01T00:11:44Z</time>
      </trkpt>
      <trkpt lat="47.28521" lon="6.57961">
        <ele>574.04443</ele>
        <time>2010-01-01T00:11:46Z</time>
      </trkpt>
      <trkpt lat="47.28525" lon="6.57991">
        <ele>573.56396</ele>
        <time>2010-01-01T00:11:54Z</time>
      </trkpt>
      <trkpt lat="47.28518" lon="6.58007">
        <ele>575.48632</ele>
        <time>2010-01-01T00:11:59Z</time>
      </trkpt>
      <trkpt lat="47.28517" lon="6.58015">
        <ele>581.73486</ele>
        <time>2010-01-01T00:12:02Z</time>
      </trkpt>
      <trkpt lat="47.28529" lon="6.58025">
        <ele>587.02197</ele>
        <time>2010-01-01T00:12:07Z</time>
      </trkpt>
      <trkpt lat="47.28567" lon="6.58028">
        <ele>582.21557</ele>
        <time>2010-01-01T00:12:22Z</time>
      </trkpt>
      <trkpt lat="47.28594" lon="6.58019">
        <ele>569.7185</ele>
        <time>2010-01-01T00:12:33Z</time>
      </trkpt>
      <trkpt lat="47.28608" lon="6.58024">
        <ele>560.58593</ele>
        <time>2010-01-01T00:12:39Z</time>
      </trkpt>
      <trkpt lat="47.28618" lon="6.58026">
        <ele>557.22143</ele>
        <time>2010-01-01T00:12:43Z</time>
      </trkpt>
      <trkpt lat="47.28643" lon="6.58037">
        <ele>551.45336</ele>
        <time>2010-01-01T00:12:53Z</time>
      </trkpt>
      <trkpt lat="47.28666" lon="6.58044">
        <ele>551.93408</ele>
        <time>2010-01-01T00:13:03Z</time>
      </trkpt>
      <trkpt lat="47.28675" lon="6.58047">
        <ele>554.81787</ele>
        <time>2010-01-01T00:13:07Z</time>
      </trkpt>
      <trkpt lat="47.28696" lon="6.5804">
        <ele>547.60815</ele>
        <time>2010-01-01T00:13:15Z</time>
      </trkpt>
      <trkpt lat="47.28705" lon="6.58035">
        <ele>547.12744</ele>
        <time>2010-01-01T00:13:19Z</time>
      </trkpt>
      <trkpt lat="47.2872" lon="6.58043">
        <ele>547.60815</ele>
        <time>2010-01-01T00:13:26Z</time>
      </trkpt>
      <trkpt lat="47.28734" lon="6.58051">
        <ele>543.76281</ele>
        <time>2010-01-01T00:13:32Z</time>
      </trkpt>
      <trkpt lat="47.28737" lon="6.58044">
        <ele>542.32092</ele>
        <time>2010-01-01T00:13:34Z</time>
      </trkpt>
      <trkpt lat="47.28743" lon="6.58042">
        <ele>541.35949</ele>
        <time>2010-01-01T00:13:36Z</time>
      </trkpt>
      <trkpt lat="47.28758" lon="6.58049">
        <ele>536.5531</ele>
        <time>2010-01-01T00:13:43Z</time>
      </trkpt>
      <trkpt lat="47.2878" lon="6.58054">
        <ele>536.5531</ele>
        <time>2010-01-01T00:13:51Z</time>
      </trkpt>
      <trkpt lat="47.28796" lon="6.58054">
        <ele>533.66894</ele>
        <time>2010-01-01T00:13:58Z</time>
      </trkpt>
      <trkpt lat="47.28809" lon="6.58042">
        <ele>535.11096</ele>
        <time>2010-01-01T00:14:04Z</time>
      </trkpt>
      <trkpt lat="47.28815" lon="6.58038">
        <ele>531.74633</ele>
        <time>2010-01-01T00:14:06Z</time>
      </trkpt>
      <trkpt lat="47.2883" lon="6.5803">
        <ele>528.86254</ele>
        <time>2010-01-01T00:14:13Z</time>
      </trkpt>
      <trkpt lat="47.28834" lon="6.58026">
        <ele>528.38183</ele>
        <time>2010-01-01T00:14:15Z</time>
      </trkpt>
      <trkpt lat="47.28836" lon="6.58023">
        <ele>528.38183</ele>
        <time>2010-01-01T00:14:16Z</time>
      </trkpt>
      <trkpt lat="47.28857" lon="6.58014">
        <ele>525.4978</ele>
        <time>2010-01-01T00:14:25Z</time>
      </trkpt>
      <trkpt lat="47.28861" lon="6.58011">
        <ele>525.01721</ele>
        <time>2010-01-01T00:14:26Z</time>
      </trkpt>
      <trkpt lat="47.28875" lon="6.58005">
        <ele>525.97839</ele>
        <time>2010-01-01T00:14:32Z</time>
      </trkpt>
      <trkpt lat="47.28879" lon="6.58003">
        <ele>525.4978</ele>
        <time>2010-01-01T00:14:34Z</time>
      </trkpt>
      <trkpt lat="47.28888" lon="6.58">
        <ele>525.01721</ele>
        <time>2010-01-01T00:14:38Z</time>
      </trkpt>
      <trkpt lat="47.28903" lon="6.57999">
        <ele>522.13317</ele>
        <time>2010-01-01T00:14:44Z</time>
      </trkpt>
      <trkpt lat="47.28917" lon="6.58004">
        <ele>519.24926</ele>
        <time>2010-01-01T00:14:50Z</time>
      </trkpt>
      <trkpt lat="47.28932" lon="6.58007">
        <ele>519.24926</ele>
        <time>2010-01-01T00:14:55Z</time>
      </trkpt>
      <trkpt lat="47.28933" lon="6.58009">
        <ele>518.76855</ele>
        <time>2010-01-01T00:14:56Z</time>
      </trkpt>
      <trkpt lat="47.28938" lon="6.58016">
        <ele>530.78515</ele>
        <time>2010-01-01T00:14:59Z</time>
      </trkpt>
      <trkpt lat="47.28938" lon="6.58015">
        <ele>529.82373</ele>
        <time>2010-01-01T00:14:59Z</time>
      </trkpt>
      <trkpt lat="47.28952" lon="6.58012">
        <ele>525.01721</ele>
        <time>2010-01-01T00:15:05Z</time>
      </trkpt>
      <trkpt lat="47.28953" lon="6.58005">
        <ele>525.97839</ele>
        <time>2010-01-01T00:15:07Z</time>
      </trkpt>
      <trkpt lat="47.28949" lon="6.57986">
        <ele>525.4978</ele>
        <time>2010-01-01T00:15:12Z</time>
      </trkpt>
      <trkpt lat="47.2895" lon="6.57967">
        <ele>525.01721</ele>
        <time>2010-01-01T00:15:17Z</time>
      </trkpt>
      <trkpt lat="47.2896" lon="6.57949">
        <ele>523.57519</ele>
        <time>2010-01-01T00:15:24Z</time>
      </trkpt>
      <trkpt lat="47.28968" lon="6.57935">
        <ele>522.13317</ele>
        <time>2010-01-01T00:15:29Z</time>
      </trkpt>
      <trkpt lat="47.28969" lon="6.57933">
        <ele>522.13317</ele>
        <time>2010-01-01T00:15:29Z</time>
      </trkpt>
      <trkpt lat="47.2898" lon="6.57916">
        <ele>523.0946</ele>
        <time>2010-01-01T00:15:36Z</time>
      </trkpt>
      <trkpt lat="47.28989" lon="6.57899">
        <ele>523.57519</ele>
        <time>2010-01-01T00:15:41Z</time>
      </trkpt>
      <trkpt lat="47.28999" lon="6.57882">
        <ele>524.53649</ele>
        <time>2010-01-01T00:15:47Z</time>
      </trkpt>
      <trkpt lat="47.29008" lon="6.57864">
        <ele>524.53649</ele>
        <time>2010-01-01T00:15:54Z</time>
      </trkpt>
      <trkpt lat="47.29019" lon="6.57841">
        <ele>526.93981</ele>
        <time>2010-01-01T00:16:01Z</time>
      </trkpt>
      <trkpt lat="47.29026" lon="6.57822">
        <ele>528.86254</ele>
        <time>2010-01-01T00:16:07Z</time>
      </trkpt>
      <trkpt lat="47.29031" lon="6.57804">
        <ele>530.30444</ele>
        <time>2010-01-01T00:16:12Z</time>
      </trkpt>
      <trkpt lat="47.29033" lon="6.57786">
        <ele>531.26574</ele>
        <time>2010-01-01T00:16:17Z</time>
      </trkpt>
      <trkpt lat="47.29035" lon="6.57774">
        <ele>532.70776</ele>
        <time>2010-01-01T00:16:21Z</time>
      </trkpt>
      <trkpt lat="47.29034" lon="6.57771">
        <ele>533.18835</ele>
        <time>2010-01-01T00:16:21Z</time>
      </trkpt>
      <trkpt lat="47.29037" lon="6.57758">
        <ele>533.18835</ele>
        <time>2010-01-01T00:16:25Z</time>
      </trkpt>
      <trkpt lat="47.29041" lon="6.57734">
        <ele>532.70776</ele>
        <time>2010-01-01T00:16:32Z</time>
      </trkpt>
      <trkpt lat="47.29047" lon="6.57703">
        <ele>536.5531</ele>
        <time>2010-01-01T00:16:41Z</time>
      </trkpt>
      <trkpt lat="47.29048" lon="6.57699">
        <ele>536.5531</ele>
        <time>2010-01-01T00:16:42Z</time>
      </trkpt>
      <trkpt lat="47.29052" lon="6.57676">
        <ele>536.07238</ele>
        <time>2010-01-01T00:16:48Z</time>
      </trkpt>
      <trkpt lat="47.29059" lon="6.57643">
        <ele>537.03369</ele>
        <time>2010-01-01T00:16:58Z</time>
      </trkpt>
      <trkpt lat="47.29064" lon="6.57609">
        <ele>537.03369</ele>
        <time>2010-01-01T00:17:07Z</time>
      </trkpt>
      <trkpt lat="47.29066" lon="6.57596">
        <ele>537.51428</ele>
        <time>2010-01-01T00:17:11Z</time>
      </trkpt>
      <trkpt lat="47.29068" lon="6.5759">
        <ele>538.95629</ele>
        <time>2010-01-01T00:17:13Z</time>
      </trkpt>
      <trkpt lat="47.29071" lon="6.57576">
        <ele>539.43688</ele>
        <time>2010-01-01T00:17:17Z</time>
      </trkpt>
      <trkpt lat="47.29072" lon="6.57569">
        <ele>539.9176</ele>
        <time>2010-01-01T00:17:18Z</time>
      </trkpt>
      <trkpt lat="47.29078" lon="6.57542">
        <ele>542.32092</ele>
        <time>2010-01-01T00:17:26Z</time>
      </trkpt>
      <trkpt lat="47.2908" lon="6.57514">
        <ele>544.24365</ele>
        <time>2010-01-01T00:17:34Z</time>
      </trkpt>
      <trkpt lat="47.2908" lon="6.57509">
        <ele>544.24365</ele>
        <time>2010-01-01T00:17:35Z</time>
      </trkpt>
      <trkpt lat="47.2908" lon="6.57503">
        <ele>543.76281</ele>
        <time>2010-01-01T00:17:37Z</time>
      </trkpt>
      <trkpt lat="47.2908" lon="6.57469">
        <ele>544.72424</ele>
        <time>2010-01-01T00:17:46Z</time>
      </trkpt>
      <trkpt lat="47.29082" lon="6.5745">
        <ele>546.16625</ele>
        <time>2010-01-01T00:17:51Z</time>
      </trkpt>
      <trkpt lat="47.29083" lon="6.57433">
        <ele>547.12744</ele>
        <time>2010-01-01T00:17:56Z</time>
      </trkpt>
      <trkpt lat="47.29082" lon="6.57401">
        <ele>548.08886</ele>
        <time>2010-01-01T00:18:05Z</time>
      </trkpt>
      <trkpt lat="47.29077" lon="6.5737">
        <ele>549.05004</ele>
        <time>2010-01-01T00:18:13Z</time>
      </trkpt>
      <trkpt lat="47.29066" lon="6.57354">
        <ele>550.49218</ele>
        <time>2010-01-01T00:18:20Z</time>
      </trkpt>
      <trkpt lat="47.29049" lon="6.57336">
        <ele>553.37597</ele>
        <time>2010-01-01T00:18:28Z</time>
      </trkpt>
      <trkpt lat="47.29035" lon="6.57319">
        <ele>552.41455</ele>
        <time>2010-01-01T00:18:35Z</time>
      </trkpt>
      <trkpt lat="47.2902" lon="6.57303">
        <ele>552.41455</ele>
        <time>2010-01-01T00:18:43Z</time>
      </trkpt>
      <trkpt lat="47.29004" lon="6.57287">
        <ele>555.29858</ele>
        <time>2010-01-01T00:18:50Z</time>
      </trkpt>
      <trkpt lat="47.28991" lon="6.57274">
        <ele>557.70214</ele>
        <time>2010-01-01T00:18:57Z</time>
      </trkpt>
      <trkpt lat="47.28974" lon="6.57258">
        <ele>556.26</ele>
        <time>2010-01-01T00:19:05Z</time>
      </trkpt>
      <trkpt lat="47.2896" lon="6.57244">
        <ele>557.70214</ele>
        <time>2010-01-01T00:19:11Z</time>
      </trkpt>
      <trkpt lat="47.28946" lon="6.57227">
        <ele>560.10522</ele>
        <time>2010-01-01T00:19:19Z</time>
      </trkpt>
      <trkpt lat="47.2893" lon="6.57209">
        <ele>560.58593</ele>
        <time>2010-01-01T00:19:27Z</time>
      </trkpt>
      <trkpt lat="47.28924" lon="6.57206">
        <ele>559.14404</ele>
        <time>2010-01-01T00:19:29Z</time>
      </trkpt>
      <trkpt lat="47.28924" lon="6.57209">
        <ele>558.66333</ele>
        <time>2010-01-01T00:19:30Z</time>
      </trkpt>
      <trkpt lat="47.28925" lon="6.57206">
        <ele>559.62475</ele>
        <time>2010-01-01T00:19:31Z</time>
      </trkpt>
      <trkpt lat="47.28925" lon="6.57206">
        <ele>559.62475</ele>
        <time>2010-01-01T00:19:31Z</time>
      </trkpt>
      <trkpt lat="47.28911" lon="6.5719">
        <ele>561.54736</ele>
        <time>2010-01-01T00:19:38Z</time>
      </trkpt>
      <trkpt lat="47.28903" lon="6.5718">
        <ele>562.50854</ele>
        <time>2010-01-01T00:19:42Z</time>
      </trkpt>
      <trkpt lat="47.2889" lon="6.57166">
        <ele>564.43115</ele>
        <time>2010-01-01T00:19:48Z</time>
      </trkpt>
      <trkpt lat="47.28875" lon="6.5715">
        <ele>565.39257</ele>
        <time>2010-01-01T00:19:56Z</time>
      </trkpt>
      <trkpt lat="47.28871" lon="6.57146">
        <ele>565.87329</ele>
        <time>2010-01-01T00:19:58Z</time>
      </trkpt>
      <trkpt lat="47.28855" lon="6.57129">
        <ele>566.83447</ele>
        <time>2010-01-01T00:20:06Z</time>
      </trkpt>
      <trkpt lat="47.28839" lon="6.57115">
        <ele>568.75708</ele>
        <time>2010-01-01T00:20:13Z</time>
      </trkpt>
      <trkpt lat="47.2882" lon="6.57098">
        <ele>570.19897</ele>
        <time>2010-01-01T00:20:22Z</time>
      </trkpt>
      <trkpt lat="47.28802" lon="6.57084">
        <ele>573.08325</ele>
        <time>2010-01-01T00:20:30Z</time>
      </trkpt>
      <trkpt lat="47.28782" lon="6.5707">
        <ele>574.04443</ele>
        <time>2010-01-01T00:20:39Z</time>
      </trkpt>
      <trkpt lat="47.28774" lon="6.57062">
        <ele>575.48632</ele>
        <time>2010-01-01T00:20:43Z</time>
      </trkpt>
      <trkpt lat="47.28755" lon="6.57047">
        <ele>577.40917</ele>
        <time>2010-01-01T00:20:52Z</time>
      </trkpt>
      <trkpt lat="47.28734" lon="6.57032">
        <ele>577.88964</ele>
        <time>2010-01-01T00:21:01Z</time>
      </trkpt>
      <trkpt lat="47.28713" lon="6.57023">
        <ele>577.88964</ele>
        <time>2010-01-01T00:21:10Z</time>
      </trkpt>
      <trkpt lat="47.28693" lon="6.57014">
        <ele>577.88964</ele>
        <time>2010-01-01T00:21:18Z</time>
      </trkpt>
      <trkpt lat="47.28684" lon="6.5701">
        <ele>578.85107</ele>
        <time>2010-01-01T00:21:22Z</time>
      </trkpt>
      <trkpt lat="47.28668" lon="6.57001">
        <ele>579.81225</ele>
        <time>2010-01-01T00:21:29Z</time>
      </trkpt>
      <trkpt lat="47.28649" lon="6.56985">
        <ele>580.77368</ele>
        <time>2010-01-01T00:21:38Z</time>
      </trkpt>
      <trkpt lat="47.28634" lon="6.56969">
        <ele>581.73486</ele>
        <time>2010-01-01T00:21:45Z</time>
      </trkpt>
      <trkpt lat="47.2862" lon="6.56952">
        <ele>583.17675</ele>
        <time>2010-01-01T00:21:52Z</time>
      </trkpt>
      <trkpt lat="47.28606" lon="6.56934">
        <ele>584.61889</ele>
        <time>2010-01-01T00:22:00Z</time>
      </trkpt>
      <trkpt lat="47.28591" lon="6.56914">
        <ele>586.5415</ele>
        <time>2010-01-01T00:22:08Z</time>
      </trkpt>
      <trkpt lat="47.28585" lon="6.56908">
        <ele>587.50268</ele>
        <time>2010-01-01T00:22:11Z</time>
      </trkpt>
      <trkpt lat="47.28583" lon="6.56906">
        <ele>587.02197</ele>
        <time>2010-01-01T00:22:11Z</time>
      </trkpt>
      <trkpt lat="47.28577" lon="6.56904">
        <ele>586.06079</ele>
        <time>2010-01-01T00:22:14Z</time>
      </trkpt>
      <trkpt lat="47.28567" lon="6.56905">
        <ele>585.58007</ele>
        <time>2010-01-01T00:22:18Z</time>
      </trkpt>
      <trkpt lat="47.28564" lon="6.56918">
        <ele>586.06079</ele>
        <time>2010-01-01T00:22:22Z</time>
      </trkpt>
      <trkpt lat="47.28564" lon="6.5692">
        <ele>587.02197</ele>
        <time>2010-01-01T00:22:22Z</time>
      </trkpt>
      <trkpt lat="47.28565" lon="6.56924">
        <ele>587.98339</ele>
        <time>2010-01-01T00:22:23Z</time>
      </trkpt>
      <trkpt lat="47.28569" lon="6.5693">
        <ele>589.42553</ele>
        <time>2010-01-01T00:22:26Z</time>
      </trkpt>
      <trkpt lat="47.28566" lon="6.56924">
        <ele>589.42553</ele>
        <time>2010-01-01T00:22:28Z</time>
      </trkpt>
      <trkpt lat="47.28566" lon="6.56924">
        <ele>588.94506</ele>
        <time>2010-01-01T00:22:28Z</time>
      </trkpt>
      <trkpt lat="47.28565" lon="6.56918">
        <ele>588.46435</ele>
        <time>2010-01-01T00:22:29Z</time>
      </trkpt>
      <trkpt lat="47.28556" lon="6.56903">
        <ele>589.42553</ele>
        <time>2010-01-01T00:22:35Z</time>
      </trkpt>
      <trkpt lat="47.28544" lon="6.5689">
        <ele>589.42553</ele>
        <time>2010-01-01T00:22:41Z</time>
      </trkpt>
      <trkpt lat="47.2853" lon="6.56875">
        <ele>590.38696</ele>
        <time>2010-01-01T00:22:48Z</time>
      </trkpt>
      <trkpt lat="47.28524" lon="6.56867">
        <ele>590.86743</ele>
        <time>2010-01-01T00:22:51Z</time>
      </trkpt>
      <trkpt lat="47.2852" lon="6.56861">
        <ele>592.30957</ele>
        <time>2010-01-01T00:22:53Z</time>
      </trkpt>
      <trkpt lat="47.28513" lon="6.56851">
        <ele>592.79028</ele>
        <time>2010-01-01T00:22:57Z</time>
      </trkpt>
      <trkpt lat="47.28507" lon="6.56842">
        <ele>592.79028</ele>
        <time>2010-01-01T00:23:01Z</time>
      </trkpt>
      <trkpt lat="47.28494" lon="6.56821">
        <ele>593.75146</ele>
        <time>2010-01-01T00:23:08Z</time>
      </trkpt>
      <trkpt lat="47.2848" lon="6.568">
        <ele>593.75146</ele>
        <time>2010-01-01T00:23:16Z</time>
      </trkpt>
      <trkpt lat="47.28474" lon="6.56784">
        <ele>595.67407</ele>
        <time>2010-01-01T00:23:21Z</time>
      </trkpt>
      <trkpt lat="47.28462" lon="6.56752">
        <ele>598.07739</ele>
        <time>2010-01-01T00:23:31Z</time>
      </trkpt>
      <trkpt lat="47.2845" lon="6.56726">
        <ele>598.55786</ele>
        <time>2010-01-01T00:23:40Z</time>
      </trkpt>
      <trkpt lat="47.2844" lon="6.56704">
        <ele>596.63549</ele>
        <time>2010-01-01T00:23:47Z</time>
      </trkpt>
      <trkpt lat="47.28433" lon="6.56679">
        <ele>600.48071</ele>
        <time>2010-01-01T00:23:54Z</time>
      </trkpt>
      <trkpt lat="47.28429" lon="6.56673">
        <ele>599.51928</ele>
        <time>2010-01-01T00:23:57Z</time>
      </trkpt>
      <trkpt lat="47.28425" lon="6.56662">
        <ele>598.07739</ele>
        <time>2010-01-01T00:24:00Z</time>
      </trkpt>
      <trkpt lat="47.28424" lon="6.5666">
        <ele>597.59667</ele>
        <time>2010-01-01T00:24:01Z</time>
      </trkpt>
      <trkpt lat="47.28421" lon="6.56641">
        <ele>599.03857</ele>
        <time>2010-01-01T00:24:06Z</time>
      </trkpt>
      <trkpt lat="47.2842" lon="6.56632">
        <ele>600.48071</ele>
        <time>2010-01-01T00:24:08Z</time>
      </trkpt>
      <trkpt lat="47.28414" lon="6.56607">
        <ele>603.84521</ele>
        <time>2010-01-01T00:24:15Z</time>
      </trkpt>
      <trkpt lat="47.28417" lon="6.56597">
        <ele>607.20996</ele>
        <time>2010-01-01T00:24:18Z</time>
      </trkpt>
      <trkpt lat="47.28412" lon="6.5658">
        <ele>609.61328</ele>
        <time>2010-01-01T00:24:23Z</time>
      </trkpt>
      <trkpt lat="47.28408" lon="6.56562">
        <ele>607.20996</ele>
        <time>2010-01-01T00:24:29Z</time>
      </trkpt>
      <trkpt lat="47.28404" lon="6.56544">
        <ele>605.28735</ele>
        <time>2010-01-01T00:24:34Z</time>
      </trkpt>
      <trkpt lat="47.284" lon="6.56522">
        <ele>606.72924</ele>
        <time>2010-01-01T00:24:40Z</time>
      </trkpt>
      <trkpt lat="47.28395" lon="6.56509">
        <ele>610.57446</ele>
        <time>2010-01-01T00:24:44Z</time>
      </trkpt>
      <trkpt lat="47.28391" lon="6.56494">
        <ele>618.7456</ele>
        <time>2010-01-01T00:24:48Z</time>
      </trkpt>
      <trkpt lat="47.28389" lon="6.56509">
        <ele>617.30371</ele>
        <time>2010-01-01T00:24:52Z</time>
      </trkpt>
      <trkpt lat="47.28385" lon="6.5652">
        <ele>618.7456</ele>
        <time>2010-01-01T00:24:56Z</time>
      </trkpt>
      <trkpt lat="47.28376" lon="6.56502">
        <ele>621.62963</ele>
        <time>2010-01-01T00:25:02Z</time>
      </trkpt>
      <trkpt lat="47.28372" lon="6.5649">
        <ele>624.99438</ele>
        <time>2010-01-01T00:25:05Z</time>
      </trkpt>
      <trkpt lat="47.28377" lon="6.565">
        <ele>623.07177</ele>
        <time>2010-01-01T00:25:09Z</time>
      </trkpt>
      <trkpt lat="47.28374" lon="6.5652">
        <ele>619.70703</ele>
        <time>2010-01-01T00:25:15Z</time>
      </trkpt>
      <trkpt lat="47.2838" lon="6.56519">
        <ele>608.17138</ele>
        <time>2010-01-01T00:25:17Z</time>
      </trkpt>
      <trkpt lat="47.28368" lon="6.56517">
        <ele>597.11596</ele>
        <time>2010-01-01T00:25:22Z</time>
      </trkpt>
      <trkpt lat="47.28377" lon="6.56522">
        <ele>610.57446</ele>
        <time>2010-01-01T00:25:26Z</time>
      </trkpt>
      <trkpt lat="47.28382" lon="6.56534">
        <ele>614.90039</ele>
        <time>2010-01-01T00:25:30Z</time>
      </trkpt>
      <trkpt lat="47.28386" lon="6.56536">
        <ele>624.51367</ele>
        <time>2010-01-01T00:25:31Z</time>
      </trkpt>
      <trkpt lat="47.28387" lon="6.56566">
        <ele>620.66845</ele>
        <time>2010-01-01T00:25:39Z</time>
      </trkpt>
      <trkpt lat="47.28388" lon="6.56598">
        <ele>619.22631</ele>
        <time>2010-01-01T00:25:48Z</time>
      </trkpt>
      <trkpt lat="47.2838" lon="6.56624">
        <ele>618.26489</ele>
        <time>2010-01-01T00:25:56Z</time>
      </trkpt>
      <trkpt lat="47.28375" lon="6.56648">
        <ele>619.70703</ele>
        <time>2010-01-01T00:26:03Z</time>
      </trkpt>
      <trkpt lat="47.28374" lon="6.56658">
        <ele>622.11035</ele>
        <time>2010-01-01T00:26:06Z</time>
      </trkpt>
      <trkpt lat="47.28374" lon="6.56669">
        <ele>623.07177</ele>
        <time>2010-01-01T00:26:08Z</time>
      </trkpt>
      <trkpt lat="47.28365" lon="6.56684">
        <ele>624.03295</ele>
        <time>2010-01-01T00:26:14Z</time>
      </trkpt>
      <trkpt lat="47.28361" lon="6.567">
        <ele>626.91699</ele>
        <time>2010-01-01T00:26:19Z</time>
      </trkpt>
      <trkpt lat="47.28356" lon="6.56717">
        <ele>627.3977</ele>
        <time>2010-01-01T00:26:24Z</time>
      </trkpt>
      <trkpt lat="47.2835" lon="6.56742">
        <ele>630.28149</ele>
        <time>2010-01-01T00:26:31Z</time>
      </trkpt>
      <trkpt lat="47.28347" lon="6.5677">
        <ele>630.7622</ele>
        <time>2010-01-01T00:26:39Z</time>
      </trkpt>
      <trkpt lat="47.28347" lon="6.56773">
        <ele>630.28149</ele>
        <time>2010-01-01T00:26:39Z</time>
      </trkpt>
      <trkpt lat="47.28347" lon="6.56779">
        <ele>633.16528</ele>
        <time>2010-01-01T00:26:41Z</time>
      </trkpt>
      <trkpt lat="47.28347" lon="6.56787">
        <ele>633.64599</ele>
        <time>2010-01-01T00:26:43Z</time>
      </trkpt>
      <trkpt lat="47.28343" lon="6.56782">
        <ele>634.60742</ele>
        <time>2010-01-01T00:26:45Z</time>
      </trkpt>
      <trkpt lat="47.28346" lon="6.56779">
        <ele>637.97216</ele>
        <time>2010-01-01T00:26:47Z</time>
      </trkpt>
      <trkpt lat="47.28349" lon="6.56778">
        <ele>647.5852</ele>
        <time>2010-01-01T00:26:48Z</time>
      </trkpt>
      <trkpt lat="47.28346" lon="6.56784">
        <ele>647.10449</ele>
        <time>2010-01-01T00:26:50Z</time>
      </trkpt>
      <trkpt lat="47.28354" lon="6.56781">
        <ele>645.66259</ele>
        <time>2010-01-01T00:26:53Z</time>
      </trkpt>
      <trkpt lat="47.28359" lon="6.56791">
        <ele>641.81738</ele>
        <time>2010-01-01T00:26:56Z</time>
      </trkpt>
      <trkpt lat="47.28364" lon="6.56803">
        <ele>638.45288</ele>
        <time>2010-01-01T00:27:00Z</time>
      </trkpt>
      <trkpt lat="47.28367" lon="6.56809">
        <ele>637.01074</ele>
        <time>2010-01-01T00:27:02Z</time>
      </trkpt>
      <trkpt lat="47.28375" lon="6.56831">
        <ele>632.68481</ele>
        <time>2010-01-01T00:27:09Z</time>
      </trkpt>
      <trkpt lat="47.28383" lon="6.56844">
        <ele>629.32006</ele>
        <time>2010-01-01T00:27:14Z</time>
      </trkpt>
      <trkpt lat="47.2839" lon="6.5686">
        <ele>625.47485</ele>
        <time>2010-01-01T00:27:19Z</time>
      </trkpt>
      <trkpt lat="47.28397" lon="6.56878">
        <ele>624.03295</ele>
        <time>2010-01-01T00:27:25Z</time>
      </trkpt>
      <trkpt lat="47.28399" lon="6.56878">
        <ele>624.03295</ele>
        <time>2010-01-01T00:27:25Z</time>
      </trkpt>
      <trkpt lat="47.28408" lon="6.56904">
        <ele>622.11035</ele>
        <time>2010-01-01T00:27:33Z</time>
      </trkpt>
      <trkpt lat="47.28418" lon="6.5692">
        <ele>621.14916</ele>
        <time>2010-01-01T00:27:39Z</time>
      </trkpt>
      <trkpt lat="47.28425" lon="6.56933">
        <ele>620.18774</ele>
        <time>2010-01-01T00:27:44Z</time>
      </trkpt>
      <trkpt lat="47.28435" lon="6.56953">
        <ele>621.14916</ele>
        <time>2010-01-01T00:27:51Z</time>
      </trkpt>
      <trkpt lat="47.2844" lon="6.56958">
        <ele>622.11035</ele>
        <time>2010-01-01T00:27:53Z</time>
      </trkpt>
      <trkpt lat="47.28451" lon="6.56973">
        <ele>624.99438</ele>
        <time>2010-01-01T00:27:59Z</time>
      </trkpt>
      <trkpt lat="47.28468" lon="6.56995">
        <ele>631.72338</ele>
        <time>2010-01-01T00:28:08Z</time>
      </trkpt>
      <trkpt lat="47.28476" lon="6.57003">
        <ele>634.1267</ele>
        <time>2010-01-01T00:28:12Z</time>
      </trkpt>
      <trkpt lat="47.28486" lon="6.57013">
        <ele>638.45288</ele>
        <time>2010-01-01T00:28:17Z</time>
      </trkpt>
      <trkpt lat="47.28499" lon="6.5703">
        <ele>642.29809</ele>
        <time>2010-01-01T00:28:24Z</time>
      </trkpt>
      <trkpt lat="47.28511" lon="6.57043">
        <ele>644.2207</ele>
        <time>2010-01-01T00:28:30Z</time>
      </trkpt>
      <trkpt lat="47.28521" lon="6.57047">
        <ele>648.54638</ele>
        <time>2010-01-01T00:28:34Z</time>
      </trkpt>
      <trkpt lat="47.28535" lon="6.57062">
        <ele>650.9497</ele>
        <time>2010-01-01T00:28:41Z</time>
      </trkpt>
      <trkpt lat="47.28546" lon="6.57076">
        <ele>651.91113</ele>
        <time>2010-01-01T00:28:46Z</time>
      </trkpt>
      <trkpt lat="47.28559" lon="6.57091">
        <ele>651.43041</ele>
        <time>2010-01-01T00:28:53Z</time>
      </trkpt>
      <trkpt lat="47.28574" lon="6.57111">
        <ele>648.54638</ele>
        <time>2010-01-01T00:29:01Z</time>
      </trkpt>
      <trkpt lat="47.28588" lon="6.57127">
        <ele>645.66259</ele>
        <time>2010-01-01T00:29:08Z</time>
      </trkpt>
      <trkpt lat="47.28595" lon="6.57143">
        <ele>639.89477</ele>
        <time>2010-01-01T00:29:13Z</time>
      </trkpt>
      <trkpt lat="47.28606" lon="6.5716">
        <ele>633.16528</ele>
        <time>2010-01-01T00:29:20Z</time>
      </trkpt>
      <trkpt lat="47.28618" lon="6.5718">
        <ele>630.28149</ele>
        <time>2010-01-01T00:29:27Z</time>
      </trkpt>
      <trkpt lat="47.28619" lon="6.57182">
        <ele>629.80078</ele>
        <time>2010-01-01T00:29:28Z</time>
      </trkpt>
      <trkpt lat="47.28633" lon="6.57195">
        <ele>627.3977</ele>
        <time>2010-01-01T00:29:34Z</time>
      </trkpt>
      <trkpt lat="47.28645" lon="6.57205">
        <ele>624.99438</ele>
        <time>2010-01-01T00:29:40Z</time>
      </trkpt>
      <trkpt lat="47.28656" lon="6.57215">
        <ele>623.07177</ele>
        <time>2010-01-01T00:29:45Z</time>
      </trkpt>
      <trkpt lat="47.28661" lon="6.57218">
        <ele>622.11035</ele>
        <time>2010-01-01T00:29:47Z</time>
      </trkpt>
      <trkpt lat="47.28676" lon="6.57239">
        <ele>622.59106</ele>
        <time>2010-01-01T00:29:55Z</time>
      </trkpt>
      <trkpt lat="47.28692" lon="6.57252">
        <ele>624.51367</ele>
        <time>2010-01-01T00:30:03Z</time>
      </trkpt>
      <trkpt lat="47.28703" lon="6.5726">
        <ele>626.91699</ele>
        <time>2010-01-01T00:30:08Z</time>
      </trkpt>
      <trkpt lat="47.2872" lon="6.5727">
        <ele>624.51367</ele>
        <time>2010-01-01T00:30:15Z</time>
      </trkpt>
      <trkpt lat="47.28727" lon="6.57281">
        <ele>622.11035</ele>
        <time>2010-01-01T00:30:19Z</time>
      </trkpt>
      <trkpt lat="47.28733" lon="6.57295">
        <ele>622.11035</ele>
        <time>2010-01-01T00:30:24Z</time>
      </trkpt>
      <trkpt lat="47.28743" lon="6.57306">
        <ele>622.11035</ele>
        <time>2010-01-01T00:30:29Z</time>
      </trkpt>
      <trkpt lat="47.28761" lon="6.57318">
        <ele>618.7456</ele>
        <time>2010-01-01T00:30:37Z</time>
      </trkpt>
      <trkpt lat="47.28771" lon="6.57327">
        <ele>619.22631</ele>
        <time>2010-01-01T00:30:41Z</time>
      </trkpt>
      <trkpt lat="47.28784" lon="6.57335">
        <ele>620.66845</ele>
        <time>2010-01-01T00:30:47Z</time>
      </trkpt>
      <trkpt lat="47.2879" lon="6.57343">
        <ele>622.59106</ele>
        <time>2010-01-01T00:30:50Z</time>
      </trkpt>
      <trkpt lat="47.288" lon="6.57346">
        <ele>626.43627</ele>
        <time>2010-01-01T00:30:54Z</time>
      </trkpt>
      <trkpt lat="47.28819" lon="6.57352">
        <ele>629.80078</ele>
        <time>2010-01-01T00:31:02Z</time>
      </trkpt>
      <trkpt lat="47.2883" lon="6.57369">
        <ele>630.28149</ele>
        <time>2010-01-01T00:31:09Z</time>
      </trkpt>
      <trkpt lat="47.28838" lon="6.57391">
        <ele>627.3977</ele>
        <time>2010-01-01T00:31:15Z</time>
      </trkpt>
      <trkpt lat="47.28843" lon="6.57406">
        <ele>627.87817</ele>
        <time>2010-01-01T00:31:20Z</time>
      </trkpt>
      <trkpt lat="47.28848" lon="6.57419">
        <ele>628.83959</ele>
        <time>2010-01-01T00:31:24Z</time>
      </trkpt>
      <trkpt lat="47.28853" lon="6.57433">
        <ele>631.24291</ele>
        <time>2010-01-01T00:31:28Z</time>
      </trkpt>
      <trkpt lat="47.28861" lon="6.57452">
        <ele>632.68481</ele>
        <time>2010-01-01T00:31:34Z</time>
      </trkpt>
      <trkpt lat="47.28862" lon="6.57444">
        <ele>638.45288</ele>
        <time>2010-01-01T00:31:36Z</time>
      </trkpt>
      <trkpt lat="47.28865" lon="6.57447">
        <ele>639.41406</ele>
        <time>2010-01-01T00:31:38Z</time>
      </trkpt>
      <trkpt lat="47.28867" lon="6.57461">
        <ele>638.93359</ele>
        <time>2010-01-01T00:31:42Z</time>
      </trkpt>
      <trkpt lat="47.28874" lon="6.57481">
        <ele>635.08813</ele>
        <time>2010-01-01T00:31:48Z</time>
      </trkpt>
      <trkpt lat="47.28877" lon="6.575">
        <ele>633.16528</ele>
        <time>2010-01-01T00:31:53Z</time>
      </trkpt>
      <trkpt lat="47.28883" lon="6.57521">
        <ele>637.01074</ele>
        <time>2010-01-01T00:32:00Z</time>
      </trkpt>
      <trkpt lat="47.28865" lon="6.57535">
        <ele>637.97216</ele>
        <time>2010-01-01T00:32:07Z</time>
      </trkpt>
      <trkpt lat="47.28844" lon="6.57555">
        <ele>637.49145</ele>
        <time>2010-01-01T00:32:18Z</time>
      </trkpt>
      <trkpt lat="47.28837" lon="6.57572">
        <ele>639.41406</ele>
        <time>2010-01-01T00:32:23Z</time>
      </trkpt>
      <trkpt lat="47.28829" lon="6.57593">
        <ele>640.85595</ele>
        <time>2010-01-01T00:32:30Z</time>
      </trkpt>
      <trkpt lat="47.28811" lon="6.57611">
        <ele>642.7788</ele>
        <time>2010-01-01T00:32:38Z</time>
      </trkpt>
      <trkpt lat="47.28788" lon="6.57632">
        <ele>644.2207</ele>
        <time>2010-01-01T00:32:49Z</time>
      </trkpt>
      <trkpt lat="47.2877" lon="6.57646">
        <ele>644.70117</ele>
        <time>2010-01-01T00:32:57Z</time>
      </trkpt>
      <trkpt lat="47.28751" lon="6.57662">
        <ele>643.73999</ele>
        <time>2010-01-01T00:33:06Z</time>
      </trkpt>
      <trkpt lat="47.2873" lon="6.57675">
        <ele>642.7788</ele>
        <time>2010-01-01T00:33:15Z</time>
      </trkpt>
      <trkpt lat="47.28719" lon="6.57679">
        <ele>641.33666</ele>
        <time>2010-01-01T00:33:20Z</time>
      </trkpt>
      <trkpt lat="47.28714" lon="6.57678">
        <ele>641.33666</ele>
        <time>2010-01-01T00:33:21Z</time>
      </trkpt>
      <trkpt lat="47.28714" lon="6.57679">
        <ele>641.33666</ele>
        <time>2010-01-01T00:33:22Z</time>
      </trkpt>
      <trkpt lat="47.28726" lon="6.5768">
        <ele>640.85595</ele>
        <time>2010-01-01T00:33:27Z</time>
      </trkpt>
      <trkpt lat="47.28723" lon="6.57679">
        <ele>641.33666</ele>
        <time>2010-01-01T00:33:28Z</time>
      </trkpt>
      <trkpt lat="47.28723" lon="6.57679">
        <ele>643.73999</ele>
        <time>2010-01-01T00:33:28Z</time>
      </trkpt>
      <trkpt lat="47.28705" lon="6.57684">
        <ele>642.7788</ele>
        <time>2010-01-01T00:33:36Z</time>
      </trkpt>
      <trkpt lat="47.28699" lon="6.57684">
        <ele>642.29809</ele>
        <time>2010-01-01T00:33:38Z</time>
      </trkpt>
      <trkpt lat="47.28712" lon="6.57686">
        <ele>637.01074</ele>
        <time>2010-01-01T00:33:44Z</time>
      </trkpt>
      <trkpt lat="47.28713" lon="6.57686">
        <ele>636.04956</ele>
        <time>2010-01-01T00:33:44Z</time>
      </trkpt>
      <trkpt lat="47.28723" lon="6.57679">
        <ele>635.5686</ele>
        <time>2010-01-01T00:33:49Z</time>
      </trkpt>
      <trkpt lat="47.28732" lon="6.57682">
        <ele>637.49145</ele>
        <time>2010-01-01T00:33:52Z</time>
      </trkpt>
      <trkpt lat="47.28724" lon="6.57681">
        <ele>640.37548</ele>
        <time>2010-01-01T00:33:55Z</time>
      </trkpt>
      <trkpt lat="47.2872" lon="6.57682">
        <ele>640.85595</ele>
        <time>2010-01-01T00:33:57Z</time>
      </trkpt>
      <trkpt lat="47.28712" lon="6.57686">
        <ele>639.41406</ele>
        <time>2010-01-01T00:34:00Z</time>
      </trkpt>
      <trkpt lat="47.28706" lon="6.57687">
        <ele>638.45288</ele>
        <time>2010-01-01T00:34:03Z</time>
      </trkpt>
      <trkpt lat="47.28704" lon="6.57687">
        <ele>638.45288</ele>
        <time>2010-01-01T00:34:04Z</time>
      </trkpt>
      <trkpt lat="47.28697" lon="6.5769">
        <ele>639.41406</ele>
        <time>2010-01-01T00:34:07Z</time>
      </trkpt>
      <trkpt lat="47.28702" lon="6.57687">
        <ele>638.45288</ele>
        <time>2010-01-01T00:34:09Z</time>
      </trkpt>
      <trkpt lat="47.2871" lon="6.57684">
        <ele>636.53027</ele>
        <time>2010-01-01T00:34:12Z</time>
      </trkpt>
      <trkpt lat="47.28724" lon="6.57681">
        <ele>634.1267</ele>
        <time>2010-01-01T00:34:17Z</time>
      </trkpt>
      <trkpt lat="47.28715" lon="6.57683">
        <ele>639.89477</ele>
        <time>2010-01-01T00:34:21Z</time>
      </trkpt>
      <trkpt lat="47.28712" lon="6.57684">
        <ele>644.70117</ele>
        <time>2010-01-01T00:34:22Z</time>
      </trkpt>
      <trkpt lat="47.28697" lon="6.57683">
        <ele>645.18188</ele>
        <time>2010-01-01T00:34:28Z</time>
      </trkpt>
      <trkpt lat="47.28686" lon="6.57687">
        <ele>644.2207</ele>
        <time>2010-01-01T00:34:33Z</time>
      </trkpt>
      <trkpt lat="47.28677" lon="6.57689">
        <ele>643.25927</ele>
        <time>2010-01-01T00:34:36Z</time>
      </trkpt>
      <trkpt lat="47.28658" lon="6.57692">
        <ele>642.7788</ele>
        <time>2010-01-01T00:34:44Z</time>
      </trkpt>
      <trkpt lat="47.28654" lon="6.57698">
        <ele>641.81738</ele>
        <time>2010-01-01T00:34:46Z</time>
      </trkpt>
      <trkpt lat="47.28649" lon="6.57705">
        <ele>641.33666</ele>
        <time>2010-01-01T00:34:49Z</time>
      </trkpt>
      <trkpt lat="47.28648" lon="6.5771">
        <ele>640.37548</ele>
        <time>2010-01-01T00:34:50Z</time>
      </trkpt>
      <trkpt lat="47.28644" lon="6.57729">
        <ele>640.85595</ele>
        <time>2010-01-01T00:34:56Z</time>
      </trkpt>
      <trkpt lat="47.28643" lon="6.57753">
        <ele>639.89477</ele>
        <time>2010-01-01T00:35:02Z</time>
      </trkpt>
      <trkpt lat="47.28634" lon="6.5777">
        <ele>642.7788</ele>
        <time>2010-01-01T00:35:08Z</time>
      </trkpt>
      <trkpt lat="47.2863" lon="6.57771">
        <ele>642.29809</ele>
        <time>2010-01-01T00:35:10Z</time>
      </trkpt>
      <trkpt lat="47.28615" lon="6.57778">
        <ele>642.7788</ele>
        <time>2010-01-01T00:35:16Z</time>
      </trkpt>
      <trkpt lat="47.28598" lon="6.57782">
        <ele>641.81738</ele>
        <time>2010-01-01T00:35:23Z</time>
      </trkpt>
      <trkpt lat="47.28593" lon="6.57783">
        <ele>641.33666</ele>
        <time>2010-01-01T00:35:25Z</time>
      </trkpt>
      <trkpt lat="47.28576" lon="6.57786">
        <ele>638.93359</ele>
        <time>2010-01-01T00:35:32Z</time>
      </trkpt>
      <trkpt lat="47.28561" lon="6.57801">
        <ele>638.93359</ele>
        <time>2010-01-01T00:35:39Z</time>
      </trkpt>
      <trkpt lat="47.28554" lon="6.57806">
        <ele>638.93359</ele>
        <time>2010-01-01T00:35:42Z</time>
      </trkpt>
      <trkpt lat="47.28539" lon="6.57818">
        <ele>642.29809</ele>
        <time>2010-01-01T00:35:49Z</time>
      </trkpt>
      <trkpt lat="47.28526" lon="6.5784">
        <ele>643.73999</ele>
        <time>2010-01-01T00:35:57Z</time>
      </trkpt>
      <trkpt lat="47.28516" lon="6.57852">
        <ele>640.85595</ele>
        <time>2010-01-01T00:36:02Z</time>
      </trkpt>
      <trkpt lat="47.28509" lon="6.57857">
        <ele>641.33666</ele>
        <time>2010-01-01T00:36:05Z</time>
      </trkpt>
      <trkpt lat="47.28508" lon="6.5787">
        <ele>641.81738</ele>
        <time>2010-01-01T00:36:09Z</time>
      </trkpt>
      <trkpt lat="47.28499" lon="6.57872">
        <ele>637.01074</ele>
        <time>2010-01-01T00:36:12Z</time>
      </trkpt>
      <trkpt lat="47.28477" lon="6.57861">
        <ele>636.04956</ele>
        <time>2010-01-01T00:36:22Z</time>
      </trkpt>
      <trkpt lat="47.28469" lon="6.57859">
        <ele>636.53027</ele>
        <time>2010-01-01T00:36:25Z</time>
      </trkpt>
      <trkpt lat="47.2846" lon="6.57856">
        <ele>636.04956</ele>
        <time>2010-01-01T00:36:29Z</time>
      </trkpt>
      <trkpt lat="47.28442" lon="6.57853">
        <ele>637.49145</ele>
        <time>2010-01-01T00:36:36Z</time>
      </trkpt>
      <trkpt lat="47.28431" lon="6.57857">
        <ele>639.41406</ele>
        <time>2010-01-01T00:36:40Z</time>
      </trkpt>
      <trkpt lat="47.28424" lon="6.57859">
        <ele>646.14331</ele>
        <time>2010-01-01T00:36:44Z</time>
      </trkpt>
      <trkpt lat="47.2843" lon="6.5786">
        <ele>647.5852</ele>
        <time>2010-01-01T00:36:46Z</time>
      </trkpt>
      <trkpt lat="47.28436" lon="6.57868">
        <ele>645.18188</ele>
        <time>2010-01-01T00:36:49Z</time>
      </trkpt>
    </trkseg>
  </trk>
</gpx>